createdAt,value
2018-09-13T00:00:53.673Z,17.90
2018-09-13T00:03:26.500Z,17.70
2018-09-13T00:05:59.326Z,17.60
2018-09-13T00:08:31.771Z,17.50
2018-09-13T00:11:04.241Z,17.50
2018-09-13T00:13:36.602Z,17.50
2018-09-13T00:16:08.966Z,17.40
2018-09-13T00:18:48.686Z,17.50
2018-09-13T00:21:25.230Z,17.50
2018-09-13T00:23:58.262Z,17.60
2018-09-13T00:26:32.656Z,17.80
2018-09-13T00:29:05.465Z,17.80
2018-09-13T00:31:37.990Z,17.90
2018-09-13T00:34:10.411Z,17.80
2018-09-13T00:36:43.755Z,17.70
2018-09-13T00:39:16.711Z,17.50
2018-09-13T00:41:54.635Z,17.30
2018-09-13T00:44:27.226Z,17.40
2018-09-13T00:46:59.849Z,17.40
2018-09-13T00:49:32.449Z,17.60
2018-09-13T00:52:04.786Z,17.70
2018-09-13T00:54:37.218Z,17.80
2018-09-13T00:57:09.845Z,17.80
2018-09-13T00:59:49.236Z,17.80
2018-09-13T01:02:22.158Z,17.90
2018-09-13T01:04:55.771Z,17.70
2018-09-13T01:07:28.353Z,17.70
2018-09-13T01:10:02.287Z,17.70
2018-09-13T01:12:34.729Z,17.70
2018-09-13T01:15:07.818Z,17.60
2018-09-13T01:17:40.277Z,17.60
2018-09-13T01:20:25.258Z,17.40
2018-09-13T01:22:58.005Z,17.40
2018-09-13T01:28:52.334Z,17.40
2018-09-13T01:31:26.491Z,17.50
2018-09-13T01:33:59.290Z,17.60
2018-09-13T01:36:32.365Z,17.40
2018-09-13T01:39:05.977Z,17.30
2018-09-13T01:41:38.710Z,17.20
2018-09-13T01:44:11.501Z,17.30
2018-09-13T01:46:44.838Z,17.40
2018-09-13T01:49:18.007Z,17.40
2018-09-13T01:51:51.137Z,17.30
2018-09-13T01:54:23.812Z,17.30
2018-09-13T01:56:56.323Z,17.30
2018-09-13T01:59:28.821Z,17.30
2018-09-13T02:02:01.386Z,17.30
2018-09-13T02:04:33.946Z,17.30
2018-09-13T02:07:06.797Z,17.20
2018-09-13T02:09:39.555Z,17.20
2018-09-13T02:12:12.074Z,17.30
2018-09-13T02:14:44.537Z,17.20
2018-09-13T02:17:17.000Z,17.10
2018-09-13T02:19:51.678Z,17.20
2018-09-13T02:22:31.653Z,17.30
2018-09-13T02:25:04.901Z,17.40
2018-09-13T02:27:38.181Z,17.30
2018-09-13T02:30:10.868Z,17.30
2018-09-13T02:32:43.919Z,17.40
2018-09-13T02:35:18.834Z,17.40
2018-09-13T02:37:51.791Z,17.40
2018-09-13T02:40:24.346Z,17.40
2018-09-13T02:42:56.922Z,17.40
2018-09-13T02:45:29.257Z,17.40
2018-09-13T02:48:02.368Z,17.40
2018-09-13T02:50:34.929Z,17.40
2018-09-13T02:53:08.777Z,17.40
2018-09-13T02:55:41.532Z,17.40
2018-09-13T02:58:16.798Z,17.50
2018-09-13T03:00:49.550Z,17.50
2018-09-13T03:03:23.578Z,17.50
2018-09-13T03:05:56.225Z,17.50
2018-09-13T03:08:29.209Z,17.50
2018-09-13T03:11:06.330Z,17.50
2018-09-13T03:13:39.923Z,17.50
2018-09-13T03:16:12.665Z,17.50
2018-09-13T03:18:46.525Z,17.50
2018-09-13T03:21:59.305Z,17.60
2018-09-13T03:24:32.204Z,17.50
2018-09-13T03:27:04.849Z,17.50
2018-09-13T03:29:38.345Z,17.40
2018-09-13T03:32:11.167Z,17.50
2018-09-13T03:34:43.760Z,17.40
2018-09-13T03:37:16.648Z,17.40
2018-09-13T03:39:49.818Z,17.40
2018-09-13T03:45:44.910Z,17.50
2018-09-13T03:48:18.039Z,17.50
2018-09-13T03:50:50.872Z,17.50
2018-09-13T03:53:24.566Z,17.50
2018-09-13T03:56:00.863Z,17.50
2018-09-13T03:58:36.646Z,17.40
2018-09-13T04:01:09.385Z,17.40
2018-09-13T04:07:02.306Z,17.40
2018-09-13T04:09:34.531Z,17.40
2018-09-13T04:12:07.103Z,17.40
2018-09-13T04:14:40.729Z,17.40
2018-09-13T04:17:15.041Z,17.40
2018-09-13T04:19:48.843Z,17.40
2018-09-13T04:22:21.104Z,17.40
2018-09-13T04:24:53.481Z,17.40
2018-09-13T04:27:25.704Z,17.40
2018-09-13T04:29:58.046Z,17.40
2018-09-13T04:32:30.353Z,17.40
2018-09-13T04:35:02.571Z,17.40
2018-09-13T04:37:35.198Z,17.40
2018-09-13T04:40:07.385Z,17.40
2018-09-13T04:42:39.686Z,17.40
2018-09-13T04:45:11.892Z,17.40
2018-09-13T04:47:49.470Z,17.40
2018-09-13T04:50:22.035Z,17.40
2018-09-13T04:52:54.155Z,17.50
2018-09-13T04:55:26.472Z,17.50
2018-09-13T04:57:58.690Z,17.50
2018-09-13T05:00:30.861Z,17.50
2018-09-13T05:03:04.935Z,17.50
2018-09-13T05:05:37.728Z,17.50
2018-09-13T05:08:10.091Z,17.50
2018-09-13T05:10:42.907Z,17.50
2018-09-13T05:13:18.168Z,17.50
2018-09-13T05:15:53.797Z,17.50
2018-09-13T05:18:31.607Z,17.40
2018-09-13T05:21:07.172Z,17.40
2018-09-13T05:27:01.229Z,17.40
2018-09-13T05:32:55.636Z,17.50
2018-09-13T05:35:28.539Z,17.40
2018-09-13T05:38:01.562Z,17.50
2018-09-13T05:40:33.874Z,17.40
2018-09-13T05:43:07.054Z,17.40
2018-09-13T05:45:40.028Z,17.40
2018-09-13T05:48:12.435Z,17.40
2018-09-13T05:54:06.772Z,17.40
2018-09-13T05:56:40.194Z,17.40
2018-09-13T05:59:13.721Z,17.40
2018-09-13T06:01:47.406Z,17.40
2018-09-13T06:04:20.841Z,17.40
2018-09-13T06:06:54.157Z,17.40
2018-09-13T06:09:27.509Z,17.40
2018-09-13T06:12:01.183Z,17.40
2018-09-13T06:14:34.432Z,17.30
2018-09-13T06:17:08.125Z,17.30
2018-09-13T06:19:41.420Z,17.30
2018-09-13T06:22:14.916Z,17.30
2018-09-13T06:24:48.734Z,17.40
2018-09-13T06:27:22.114Z,17.50
2018-09-13T06:29:55.699Z,17.50
2018-09-13T06:32:28.808Z,17.50
2018-09-13T06:35:02.312Z,17.50
2018-09-13T06:38:07.825Z,17.40
2018-09-13T06:40:41.708Z,17.40
2018-09-13T06:43:14.906Z,17.40
2018-09-13T06:45:48.259Z,17.40
2018-09-13T06:48:21.266Z,17.30
2018-09-13T06:50:54.447Z,17.30
2018-09-13T06:53:27.846Z,17.40
2018-09-13T06:56:01.097Z,17.30
2018-09-13T06:58:34.436Z,17.30
2018-09-13T07:01:08.099Z,17.30
2018-09-13T07:03:41.522Z,17.30
2018-09-13T07:06:14.788Z,17.20
2018-09-13T07:12:08.542Z,17.10
2018-09-13T07:14:41.309Z,17.10
2018-09-13T07:17:14.357Z,17.20
2018-09-13T07:19:47.574Z,17.20
2018-09-13T07:22:20.637Z,17.10
2018-09-13T07:24:53.822Z,17.20
2018-09-13T07:27:26.979Z,17.20
2018-09-13T07:29:59.884Z,17.20
2018-09-13T07:32:32.677Z,17.20
2018-09-13T07:35:05.793Z,17.20
2018-09-13T07:37:38.918Z,17.20
2018-09-13T07:40:11.877Z,17.20
2018-09-13T07:42:44.888Z,17.20
2018-09-13T07:45:18.982Z,17.10
2018-09-13T07:47:51.754Z,17.10
2018-09-13T07:50:25.257Z,17.10
2018-09-13T07:52:58.338Z,17.00
2018-09-13T07:55:31.760Z,16.90
2018-09-13T07:58:05.010Z,16.90
2018-09-13T08:00:38.017Z,16.80
2018-09-13T08:03:10.770Z,16.80
2018-09-13T08:05:44.034Z,16.80
2018-09-13T08:08:16.749Z,16.70
2018-09-13T08:10:49.933Z,16.70
2018-09-13T08:13:22.955Z,16.70
2018-09-13T08:15:56.364Z,16.70
2018-09-13T08:18:29.501Z,16.90
2018-09-13T08:21:02.659Z,16.90
2018-09-13T08:23:36.080Z,16.80
2018-09-13T08:26:09.777Z,16.70
2018-09-13T08:28:42.720Z,16.80
2018-09-13T08:31:16.122Z,16.80
2018-09-13T08:33:49.187Z,16.80
2018-09-13T08:36:22.285Z,16.70
2018-09-13T08:38:55.890Z,16.80
2018-09-13T08:41:28.892Z,16.80
2018-09-13T08:44:01.807Z,16.80
2018-09-13T08:46:34.409Z,16.80
2018-09-13T08:49:07.446Z,16.80
2018-09-13T08:51:40.453Z,16.60
2018-09-13T08:54:13.947Z,16.50
2018-09-13T08:56:47.175Z,16.50
2018-09-13T08:59:20.317Z,16.40
2018-09-13T09:01:53.266Z,16.50
2018-09-13T09:04:26.322Z,16.40
2018-09-13T09:06:59.393Z,16.40
2018-09-13T09:09:33.262Z,16.50
2018-09-13T09:15:27.328Z,16.50
2018-09-13T09:17:59.661Z,16.50
2018-09-13T09:20:32.226Z,16.50
2018-09-13T09:23:04.602Z,16.50
2018-09-13T09:26:09.689Z,16.50
2018-09-13T09:28:42.060Z,16.40
2018-09-13T09:31:14.968Z,16.40
2018-09-13T09:33:47.193Z,16.40
2018-09-13T09:36:19.422Z,16.30
2018-09-13T09:38:52.923Z,16.40
2018-09-13T09:41:25.226Z,16.40
2018-09-13T09:43:57.496Z,16.40
2018-09-13T09:46:29.723Z,16.40
2018-09-13T09:49:03.342Z,16.40
2018-09-13T09:51:35.582Z,16.30
2018-09-13T09:54:08.246Z,16.40
2018-09-13T09:56:40.465Z,16.40
2018-09-13T09:59:13.590Z,16.40
2018-09-13T10:01:51.002Z,16.40
2018-09-13T10:04:24.199Z,16.30
2018-09-13T10:06:57.409Z,16.30
2018-09-13T10:09:29.884Z,16.30
2018-09-13T10:12:02.705Z,16.40
2018-09-13T10:14:35.738Z,16.40
2018-09-13T10:17:12.574Z,16.40
2018-09-13T10:19:49.273Z,16.40
2018-09-13T10:22:26.011Z,16.30
2018-09-13T10:25:03.539Z,16.30
2018-09-13T10:27:40.313Z,16.20
2018-09-13T10:30:17.133Z,16.20
2018-09-13T10:32:54.100Z,16.30
2018-09-13T10:35:30.870Z,16.40
2018-09-13T10:38:07.588Z,16.50
2018-09-13T10:40:44.818Z,16.50
2018-09-13T10:43:21.614Z,16.50
2018-09-13T10:45:58.704Z,16.40
2018-09-13T10:48:32.518Z,16.50
2018-09-13T10:51:12.255Z,16.50
2018-09-13T10:53:47.305Z,16.50
2018-09-13T10:56:19.629Z,16.50
2018-09-13T10:58:51.992Z,16.50
2018-09-13T11:01:24.233Z,16.50
2018-09-13T11:03:56.507Z,16.50
2018-09-13T11:06:29.729Z,16.60
2018-09-13T11:09:01.929Z,16.60
2018-09-13T11:11:34.537Z,16.70
2018-09-13T11:14:15.838Z,16.70
2018-09-13T11:16:48.238Z,16.70
2018-09-13T11:19:20.532Z,16.70
2018-09-13T11:21:52.961Z,16.70
2018-09-13T11:27:47.328Z,16.80
2018-09-13T11:30:20.063Z,16.90
2018-09-13T11:32:53.425Z,16.90
2018-09-13T11:35:26.842Z,16.90
2018-09-13T11:38:00.098Z,16.90
2018-09-13T11:44:03.186Z,16.90
2018-09-13T11:46:35.529Z,16.90
2018-09-13T11:49:08.578Z,16.90
2018-09-13T11:51:41.759Z,16.90
2018-09-13T11:54:14.241Z,16.90
2018-09-13T11:56:46.865Z,16.90
2018-09-13T11:59:19.353Z,16.90
2018-09-13T12:01:52.119Z,17.00
2018-09-13T12:04:25.021Z,17.00
2018-09-13T12:10:19.173Z,17.00
2018-09-13T12:12:52.020Z,17.10
2018-09-13T12:15:24.389Z,17.00
2018-09-13T12:17:59.127Z,17.10
2018-09-13T12:20:31.543Z,17.20
2018-09-13T12:23:04.125Z,17.20
2018-09-13T12:25:37.050Z,17.20
2018-09-13T12:28:15.290Z,17.40
2018-09-13T12:30:49.075Z,17.40
2018-09-13T12:33:21.362Z,17.70
2018-09-13T12:35:53.527Z,17.80
2018-09-13T12:38:25.798Z,17.90
2018-09-13T12:40:58.647Z,18.00
2018-09-13T12:43:31.458Z,17.90
2018-09-13T12:46:05.509Z,17.90
2018-09-13T12:48:38.067Z,17.90
2018-09-13T12:51:11.758Z,17.90
2018-09-13T12:53:46.179Z,18.10
2018-09-13T12:56:18.343Z,18.30
2018-09-13T12:58:50.843Z,18.30
2018-09-13T13:01:26.456Z,18.00
2018-09-13T13:03:58.748Z,17.80
2018-09-13T13:06:31.005Z,17.70
2018-09-13T13:09:05.994Z,17.70
2018-09-13T13:11:38.461Z,17.90
2018-09-13T13:14:11.906Z,17.90
2018-09-13T13:16:45.255Z,17.90
2018-09-13T13:19:18.936Z,17.80
2018-09-13T13:21:51.412Z,17.80
2018-09-13T13:24:23.849Z,17.90
2018-09-13T13:26:56.821Z,18.00
2018-09-13T13:29:29.025Z,18.10
2018-09-13T13:32:05.027Z,18.10
2018-09-13T13:34:37.561Z,18.10
2018-09-13T13:37:10.133Z,18.20
2018-09-13T13:39:42.239Z,18.30
2018-09-13T13:42:14.479Z,18.40
2018-09-13T13:44:46.859Z,18.50
2018-09-13T13:47:19.162Z,18.80
2018-09-13T13:49:51.622Z,19.40
2018-09-13T13:52:23.786Z,19.60
2018-09-13T13:54:56.005Z,20.10
2018-09-13T13:57:28.869Z,20.60
2018-09-13T14:03:22.249Z,21.30
2018-09-13T14:05:54.959Z,22.20
2018-09-13T14:08:27.700Z,22.60
2018-09-13T14:11:00.792Z,22.30
2018-09-13T14:13:33.676Z,22.50
2018-09-13T14:16:06.316Z,21.70
2018-09-13T14:18:38.870Z,22.30
2018-09-13T14:21:11.650Z,21.80
2018-09-13T14:23:44.344Z,21.80
2018-09-13T14:26:17.445Z,22.30
2018-09-13T14:28:49.967Z,23.20
2018-09-13T14:31:22.645Z,23.90
2018-09-13T14:33:55.226Z,23.50
2018-09-13T14:36:28.076Z,22.20
2018-09-13T14:39:00.623Z,22.10
2018-09-13T14:41:33.192Z,22.20
2018-09-13T14:44:06.294Z,21.90
2018-09-13T14:46:39.357Z,22.40
2018-09-13T14:49:12.507Z,22.40
2018-09-13T14:51:45.098Z,22.60
2018-09-13T14:54:18.664Z,22.80
2018-09-13T14:56:52.786Z,23.30
2018-09-13T14:59:25.596Z,23.30
2018-09-13T15:01:58.924Z,23.70
2018-09-13T15:04:32.085Z,23.90
2018-09-13T15:07:04.722Z,23.70
2018-09-13T15:09:37.783Z,23.50
2018-09-13T15:12:10.670Z,23.30
2018-09-13T15:14:44.910Z,23.30
2018-09-13T15:17:20.766Z,23.20
2018-09-13T15:19:57.806Z,23.40
2018-09-13T15:22:35.483Z,24.10
2018-09-13T15:25:11.603Z,24.30
2018-09-13T15:27:52.020Z,24.50
2018-09-13T15:30:30.834Z,24.40
2018-09-13T15:33:07.376Z,24.70
2018-09-13T15:35:42.021Z,24.90
2018-09-13T15:38:17.875Z,24.50
2018-09-13T15:40:54.914Z,23.80
2018-09-13T15:43:34.024Z,23.90
2018-09-13T15:46:10.209Z,23.80
2018-09-13T15:48:47.739Z,23.90
2018-09-13T15:51:24.747Z,24.40
2018-09-13T15:54:00.636Z,24.80
2018-09-13T15:56:36.052Z,25.10
2018-09-13T15:59:17.466Z,25.70
2018-09-13T16:01:54.454Z,25.60
2018-09-13T16:04:30.222Z,25.10
2018-09-13T16:07:03.433Z,24.50
2018-09-13T16:09:43.832Z,24.40
2018-09-13T16:12:28.124Z,24.00
2018-09-13T16:15:14.449Z,24.10
2018-09-13T16:17:56.469Z,23.80
2018-09-13T16:20:32.270Z,23.80
2018-09-13T16:23:09.098Z,23.60
2018-09-13T16:25:45.365Z,23.50
2018-09-13T16:28:24.845Z,23.50
2018-09-13T16:31:01.001Z,23.50
2018-09-13T16:33:36.956Z,23.70
2018-09-13T16:36:13.651Z,24.40
2018-09-13T16:38:54.000Z,25.50
2018-09-13T16:41:39.375Z,26.80
2018-09-13T16:47:38.142Z,27.50
2018-09-13T16:50:10.909Z,26.60
2018-09-13T16:52:48.135Z,26.10
2018-09-13T16:55:26.477Z,25.90
2018-09-13T16:58:04.509Z,25.80
2018-09-13T17:00:40.108Z,25.40
2018-09-13T17:03:20.211Z,25.60
2018-09-13T17:05:56.819Z,26.20
2018-09-13T17:08:33.769Z,26.50
2018-09-13T17:11:11.150Z,26.90
2018-09-13T17:13:47.868Z,27.60
2018-09-13T17:16:23.385Z,27.50
2018-09-13T17:18:59.625Z,28.20
2018-09-13T17:21:39.321Z,28.10
2018-09-13T17:24:15.393Z,28.20
2018-09-13T17:26:57.423Z,28.10
2018-09-13T17:29:34.830Z,27.90
2018-09-13T17:32:13.590Z,27.70
2018-09-13T17:34:51.651Z,27.20
2018-09-13T17:37:33.909Z,26.20
2018-09-13T17:40:09.906Z,25.50
2018-09-13T17:42:46.338Z,25.30
2018-09-13T17:45:24.517Z,25.10
2018-09-13T17:48:02.012Z,24.70
2018-09-13T17:50:40.747Z,24.70
2018-09-13T17:53:18.743Z,24.40
2018-09-13T17:55:53.312Z,24.50
2018-09-13T17:58:29.463Z,25.00
2018-09-13T18:01:05.410Z,25.60
2018-09-13T18:07:00.535Z,25.60
2018-09-13T18:09:38.840Z,25.10
2018-09-13T18:12:17.742Z,24.70
2018-09-13T18:14:55.145Z,24.50
2018-09-13T18:17:32.662Z,24.40
2018-09-13T18:20:10.281Z,24.30
2018-09-13T18:22:48.481Z,24.30
2018-09-13T18:25:25.649Z,24.40
2018-09-13T18:31:18.956Z,24.20
2018-09-13T18:33:51.361Z,24.40
2018-09-13T18:36:23.657Z,24.40
2018-09-13T18:38:56.151Z,24.60
2018-09-13T18:41:29.552Z,24.60
2018-09-13T18:44:02.219Z,24.60
2018-09-13T18:46:34.569Z,24.20
2018-09-13T18:53:12.849Z,23.90
2018-09-13T18:55:45.543Z,23.40
2018-09-13T18:58:18.348Z,23.20
2018-09-13T19:00:51.283Z,23.40
2018-09-13T19:03:23.553Z,23.80
2018-09-13T19:05:55.763Z,24.50
2018-09-13T19:08:28.644Z,25.30
2018-09-13T19:11:01.130Z,26.30
2018-09-13T19:13:34.470Z,26.40
2018-09-13T19:16:06.789Z,26.00
2018-09-13T19:18:39.204Z,25.50
2018-09-13T19:21:11.540Z,25.40
2018-09-13T19:23:44.134Z,26.20
2018-09-13T19:26:16.969Z,26.50
2018-09-13T19:28:51.249Z,26.30
2018-09-13T19:31:24.962Z,25.70
2018-09-13T19:33:59.126Z,25.00
2018-09-13T19:36:31.361Z,24.80
2018-09-13T19:39:03.914Z,24.70
2018-09-13T19:41:36.902Z,24.10
2018-09-13T19:44:09.343Z,23.40
2018-09-13T19:46:41.829Z,23.20
2018-09-13T19:49:14.265Z,23.10
2018-09-13T19:51:46.603Z,22.90
2018-09-13T19:54:20.002Z,22.10
2018-09-13T19:56:52.329Z,20.90
2018-09-13T19:59:27.193Z,20.20
2018-09-13T20:02:00.397Z,19.80
2018-09-13T20:04:32.903Z,19.40
2018-09-13T20:07:06.109Z,19.40
2018-09-13T20:09:40.053Z,19.40
2018-09-13T20:12:12.323Z,19.30
2018-09-13T20:14:44.974Z,19.40
2018-09-13T20:17:17.457Z,19.20
2018-09-13T20:19:53.238Z,19.30
2018-09-13T20:22:25.522Z,19.30
2018-09-13T20:28:18.917Z,19.30
2018-09-13T20:30:51.253Z,19.30
2018-09-13T20:33:23.946Z,19.40
2018-09-13T20:35:57.023Z,19.40
2018-09-13T20:38:29.758Z,19.40
2018-09-13T20:41:02.774Z,19.30
2018-09-13T20:43:35.420Z,19.50
2018-09-13T20:46:08.558Z,19.70
2018-09-13T20:48:41.031Z,19.90
2018-09-13T20:51:17.090Z,20.20
2018-09-13T20:53:50.083Z,20.50
2018-09-13T20:56:25.637Z,20.70
2018-09-13T20:58:58.071Z,20.90
2018-09-13T21:01:36.004Z,21.00
2018-09-13T21:04:18.152Z,21.00
2018-09-13T21:06:56.184Z,20.90
2018-09-13T21:09:28.613Z,20.80
2018-09-13T21:12:05.561Z,20.60
2018-09-13T21:14:38.810Z,20.50
2018-09-13T21:17:12.447Z,20.30
2018-09-13T21:19:44.863Z,20.30
2018-09-13T21:22:18.141Z,20.20
2018-09-13T21:24:50.460Z,20.10
2018-09-13T21:27:23.231Z,20.00
2018-09-13T21:29:56.040Z,19.90
2018-09-13T21:32:28.862Z,19.70
2018-09-13T21:35:02.884Z,19.70
2018-09-13T21:37:39.583Z,19.90
2018-09-13T21:43:32.350Z,20.50
2018-09-13T21:46:04.593Z,21.10
2018-09-13T21:48:37.011Z,21.30
2018-09-13T21:51:09.565Z,21.30
2018-09-13T21:53:42.350Z,21.50
2018-09-13T21:56:14.610Z,21.80
2018-09-13T21:58:46.849Z,21.80
2018-09-13T22:01:19.186Z,21.90
2018-09-13T22:03:51.542Z,22.30
2018-09-13T22:06:23.841Z,22.40
2018-09-13T22:08:56.345Z,22.30
2018-09-13T22:11:29.937Z,22.70
2018-09-13T22:14:02.165Z,23.20
2018-09-13T22:16:36.514Z,23.30
2018-09-13T22:19:08.868Z,23.30
2018-09-13T22:21:41.081Z,23.20
2018-09-13T22:24:13.289Z,22.90
2018-09-13T22:26:45.479Z,22.60
2018-09-13T22:29:17.802Z,22.60
2018-09-13T22:31:50.067Z,22.60
2018-09-13T22:34:22.725Z,22.60
2018-09-13T22:36:55.067Z,22.60
2018-09-13T22:39:28.043Z,22.50
2018-09-13T22:42:00.263Z,22.70
2018-09-13T22:44:36.205Z,22.90
2018-09-13T22:47:08.826Z,23.10
2018-09-13T22:49:42.663Z,23.20
2018-09-13T22:52:16.279Z,23.40
2018-09-13T22:54:52.655Z,23.70
2018-09-13T22:57:26.683Z,23.50
2018-09-13T22:59:59.150Z,23.40
2018-09-13T23:02:31.694Z,23.40
2018-09-13T23:05:03.977Z,23.30
2018-09-13T23:07:36.364Z,22.90
2018-09-13T23:10:08.906Z,22.70
2018-09-13T23:12:41.353Z,22.40
2018-09-13T23:15:13.694Z,21.90
2018-09-13T23:17:47.855Z,21.30
2018-09-13T23:20:20.181Z,21.20
2018-09-13T23:22:52.490Z,21.20
2018-09-13T23:25:25.173Z,21.00
2018-09-13T23:27:59.034Z,20.90
2018-09-13T23:30:31.469Z,20.90
2018-09-13T23:33:03.811Z,21.00
2018-09-13T23:35:36.323Z,21.10
2018-09-13T23:38:08.781Z,21.10
2018-09-13T23:40:42.544Z,21.20
2018-09-13T23:43:14.915Z,21.30
2018-09-13T23:45:47.247Z,21.20
2018-09-13T23:48:19.717Z,21.10
2018-09-13T23:50:51.986Z,21.10
2018-09-13T23:53:24.424Z,21.00
2018-09-13T23:55:56.847Z,21.00
2018-09-13T23:58:29.212Z,21.00
